Time;durP1;ratioP1;P1;durP2;ratioP2;P2;SDS_P1;SDS_P2;PMS_P1;PMS_P2;Temp;Humidity;BMP_temperature;BMP_pressure;BME280_temperature;BME280_humidity;BME280_pressure;Samples;Min_cycle;Max_cycle;Signal;HPM_P1;HPM_P2
2024/01/21 00:00:20;;;;;;;4.80;4.50;;;-1.40;99.90;;;;;;5085174;28;20215;-77
2024/01/21 00:02:47;;;;;;;4.00;3.80;;;-1.40;99.90;;;;;;5082817;28;20248;-77
2024/01/21 00:05:16;;;;;;;4.00;3.80;;;-1.50;99.90;;;;;;5081972;28;20258;-76
2024/01/21 00:07:43;;;;;;;4.00;3.80;;;-1.50;99.90;;;;;;5085128;28;20221;-76
2024/01/21 00:10:10;;;;;;;3.88;3.63;;;-1.50;99.90;;;;;;5084054;28;20222;-75
2024/01/21 00:12:38;;;;;;;4.53;4.22;;;-1.60;99.90;;;;;;5083960;27;20221;-75
2024/01/21 00:15:06;;;;;;;4.10;3.90;;;-1.60;99.90;;;;;;5087347;28;20197;-75
2024/01/21 00:17:33;;;;;;;3.83;3.63;;;-1.60;99.90;;;;;;5094894;28;20236;-76
2024/01/21 00:20:00;;;;;;;4.47;4.22;;;-1.60;99.90;;;;;;5084414;28;20270;-75
2024/01/21 00:22:29;;;;;;;4.10;3.90;;;-1.60;99.90;;;;;;5091215;27;20240;-76
2024/01/21 00:24:56;;;;;;;4.53;4.22;;;-1.60;99.90;;;;;;5082263;28;20781;-76
2024/01/21 00:27:23;;;;;;;4.30;4.00;;;-1.60;99.90;;;;;;5077190;28;20718;-75
2024/01/21 00:29:50;;;;;;;4.70;4.40;;;-1.60;99.90;;;;;;5082093;28;20209;-75
2024/01/21 00:32:17;;;;;;;4.50;3.92;;;-1.60;99.90;;;;;;5084965;28;20213;-75
2024/01/21 00:34:44;;;;;;;3.72;3.50;;;-1.60;99.90;;;;;;5080628;28;20198;-75
2024/01/21 00:37:11;;;;;;;3.60;3.40;;;-1.60;99.90;;;;;;5076973;28;20225;-77
2024/01/21 00:39:39;;;;;;;3.80;3.60;;;-1.60;99.90;;;;;;5074471;28;20204;-75
2024/01/21 00:42:06;;;;;;;3.92;3.70;;;-1.50;99.90;;;;;;5083282;28;20792;-76
2024/01/21 00:44:34;;;;;;;3.65;3.45;;;-1.60;99.90;;;;;;5091749;28;20190;-78
2024/01/21 00:47:01;;;;;;;4.15;3.92;;;-1.60;99.90;;;;;;5084098;28;20765;-76
2024/01/21 00:49:29;;;;;;;4.32;4.07;;;-1.60;99.90;;;;;;5082166;28;20212;-75
2024/01/21 00:51:56;;;;;;;4.53;4.22;;;-1.70;99.90;;;;;;5077838;28;20210;-78
2024/01/21 00:54:23;;;;;;;3.67;3.47;;;-1.70;99.90;;;;;;5074182;28;20205;-77
2024/01/21 00:56:52;;;;;;;3.75;3.55;;;-1.70;99.90;;;;;;5072642;28;20703;-77
2024/01/21 00:59:19;;;;;;;4.18;3.97;;;-1.70;99.90;;;;;;5084460;28;20205;-77
2024/01/21 01:01:46;;;;;;;4.35;4.05;;;-1.80;99.90;;;;;;5080817;28;20737;-76
2024/01/21 01:04:13;;;;;;;4.18;3.97;;;-1.80;99.90;;;;;;5078986;28;20220;-77
2024/01/21 01:06:40;;;;;;;4.13;3.92;;;-1.80;99.90;;;;;;5081580;28;20221;-77
2024/01/21 01:09:07;;;;;;;4.28;4.07;;;-1.90;99.90;;;;;;5083922;28;20221;-77
2024/01/21 01:11:34;;;;;;;4.10;3.90;;;-1.90;99.90;;;;;;5082434;28;20289;-76
2024/01/21 01:14:02;;;;;;;4.45;4.15;;;-2.00;99.90;;;;;;5081556;28;20221;-76
2024/01/21 01:16:30;;;;;;;4.70;4.40;;;-2.00;99.90;;;;;;5087428;28;20229;-76
2024/01/21 01:18:58;;;;;;;3.97;3.67;;;-2.00;99.90;;;;;;5080750;28;20240;-76
2024/01/21 01:21:25;;;;;;;4.30;4.10;;;-2.00;99.90;;;;;;5085477;28;20209;-77
2024/01/21 01:23:52;;;;;;;4.20;4.00;;;-2.00;99.90;;;;;;5080358;28;20221;-77
2024/01/21 01:26:19;;;;;;;4.22;3.95;;;-2.00;99.90;;;;;;5079652;28;20225;-76
2024/01/21 01:28:46;;;;;;;4.25;4.00;;;-2.00;99.90;;;;;;5057301;28;20221;-77
2024/01/21 01:31:18;;;;;;;3.92;3.72;;;-2.00;99.90;;;;;;5054359;28;20207;-77
2024/01/21 01:33:45;;;;;;;4.88;4.57;;;-2.00;99.90;;;;;;5078707;28;20311;-77
2024/01/21 01:36:13;;;;;;;4.15;3.95;;;-2.00;99.90;;;;;;5086870;28;20221;-77
2024/01/21 01:38:40;;;;;;;4.65;4.35;;;-2.00;99.90;;;;;;5081629;28;20220;-77
2024/01/21 01:41:07;;;;;;;4.43;4.20;;;-2.00;99.90;;;;;;5084940;28;20212;-77
2024/01/21 01:43:34;;;;;;;4.10;3.90;;;-2.00;99.90;;;;;;5085071;28;20221;-77
2024/01/21 01:46:01;;;;;;;4.18;3.88;;;-2.00;99.90;;;;;;5080605;28;20222;-77
2024/01/21 01:48:31;;;;;;;4.72;4.43;;;-2.10;99.90;;;;;;5080260;28;20225;-77
2024/01/21 01:51:00;;;;;;;3.78;3.55;;;-2.10;99.90;;;;;;5084199;28;20204;-76
2024/01/21 01:53:27;;;;;;;3.92;3.72;;;-2.10;99.90;;;;;;5082363;28;20259;-77
2024/01/21 01:55:54;;;;;;;4.10;3.90;;;-2.20;99.90;;;;;;5082731;28;20218;-78
2024/01/21 01:58:24;;;;;;;4.15;3.95;;;-2.10;99.90;;;;;;5078500;28;20602;-76
2024/01/21 02:00:52;;;;;;;4.10;3.90;;;-2.10;99.90;;;;;;5079034;28;20216;-76
2024/01/21 02:03:19;;;;;;;4.10;3.90;;;-2.10;99.90;;;;;;5098759;28;20225;-75
2024/01/21 02:05:48;;;;;;;4.03;3.83;;;-2.10;99.90;;;;;;5102691;28;20217;-77
2024/01/21 02:08:15;;;;;;;3.60;3.40;;;-2.20;99.90;;;;;;5097556;28;20217;-77
2024/01/21 02:10:42;;;;;;;4.05;3.85;;;-2.20;99.90;;;;;;5077591;28;20204;-77
2024/01/21 02:13:09;;;;;;;3.60;3.40;;;-2.20;99.90;;;;;;5083276;28;20221;-78
2024/01/21 02:15:37;;;;;;;4.25;4.05;;;-2.20;99.90;;;;;;5086083;28;20734;-77
2024/01/21 02:18:04;;;;;;;3.70;3.40;;;-2.20;99.90;;;;;;5085341;28;20231;-77
2024/01/21 02:20:33;;;;;;;4.10;3.90;;;-2.20;99.90;;;;;;5084678;28;20198;-77
2024/01/21 02:23:06;;;;;;;3.15;3.05;;;-2.20;99.90;;;;;;5083468;28;20267;-77
2024/01/21 02:25:33;;;;;;;3.75;3.53;;;-2.30;99.90;;;;;;5081448;28;20261;-77
2024/01/21 02:28:00;;;;;;;4.68;4.38;;;-2.30;99.90;;;;;;5080931;28;20217;-77
2024/01/21 02:30:28;;;;;;;4.40;4.15;;;-2.30;99.90;;;;;;5083367;28;20333;-77
2024/01/21 02:32:55;;;;;;;4.35;4.05;;;-2.30;99.90;;;;;;5082067;28;20241;-78
2024/01/21 02:35:22;;;;;;;4.68;4.38;;;-2.30;99.90;;;;;;5082310;28;20193;-77
2024/01/21 02:37:49;;;;;;;4.25;4.05;;;-2.30;99.90;;;;;;5077685;28;20229;-77
2024/01/21 02:40:17;;;;;;;4.18;3.88;;;-2.30;99.90;;;;;;5081703;28;20676;-76
2024/01/21 02:42:44;;;;;;;4.10;3.90;;;-2.30;99.90;;;;;;5080755;27;20218;-76
2024/01/21 02:45:11;;;;;;;4.13;3.83;;;-2.30;99.90;;;;;;5080979;28;20664;-78
2024/01/21 02:47:38;;;;;;;4.50;4.20;;;-2.30;99.90;;;;;;5082284;28;20229;-77
2024/01/21 02:50:06;;;;;;;3.92;3.72;;;-2.30;99.90;;;;;;5082946;28;20205;-77
2024/01/21 02:52:34;;;;;;;3.58;3.38;;;-2.30;99.90;;;;;;5081298;28;20309;-77
2024/01/21 02:55:01;;;;;;;4.50;4.30;;;-2.30;99.90;;;;;;5085621;28;20213;-76
2024/01/21 02:57:29;;;;;;;3.85;3.65;;;-2.40;99.90;;;;;;5082329;28;20241;-77
2024/01/21 02:59:56;;;;;;;4.60;4.40;;;-2.40;99.90;;;;;;5083587;28;20212;-76
2024/01/21 03:02:23;;;;;;;4.30;4.00;;;-2.40;99.90;;;;;;5082256;28;20225;-77
2024/01/21 03:04:50;;;;;;;3.72;3.53;;;-2.40;99.90;;;;;;5083481;28;20197;-76
2024/01/21 03:07:17;;;;;;;4.43;4.13;;;-2.40;99.90;;;;;;5082334;28;20244;-77
2024/01/21 03:09:44;;;;;;;4.32;4.10;;;-2.50;99.90;;;;;;5086697;28;20208;-77
2024/01/21 03:12:11;;;;;;;4.18;3.88;;;-2.50;99.90;;;;;;5082343;28;20233;-76
2024/01/21 03:14:40;;;;;;;4.90;4.60;;;-2.60;99.90;;;;;;5083648;28;20193;-77
2024/01/21 03:17:07;;;;;;;4.22;3.97;;;-2.60;99.90;;;;;;5085839;28;20274;-75
2024/01/21 03:19:35;;;;;;;4.35;4.15;;;-2.60;99.90;;;;;;5085896;28;20622;-76
2024/01/21 03:22:02;;;;;;;4.63;4.32;;;-2.60;99.90;;;;;;5088950;28;20818;-76
2024/01/21 03:24:29;;;;;;;4.20;4.00;;;-2.60;99.90;;;;;;5084092;28;20209;-77
2024/01/21 03:26:56;;;;;;;4.72;4.43;;;-2.60;99.90;;;;;;5080982;28;20230;-77
2024/01/21 03:29:24;;;;;;;3.92;3.67;;;-2.50;99.90;;;;;;5089925;28;20607;-76
2024/01/21 03:31:52;;;;;;;3.65;3.45;;;-2.50;99.90;;;;;;5082957;28;20205;-76
2024/01/21 03:34:19;;;;;;;4.60;4.40;;;-2.50;99.90;;;;;;5085760;28;20233;-77
2024/01/21 03:36:46;;;;;;;4.18;3.97;;;-2.40;99.90;;;;;;5083988;28;20723;-76
2024/01/21 03:39:13;;;;;;;4.28;4.05;;;-2.40;99.90;;;;;;5064322;28;20237;-77
2024/01/21 03:41:40;;;;;;;3.92;3.72;;;-2.50;99.90;;;;;;5064728;28;20198;-76
2024/01/21 03:44:07;;;;;;;4.30;3.90;;;-2.50;99.90;;;;;;5087555;28;20244;-77
2024/01/21 03:46:34;;;;;;;4.60;4.30;;;-2.50;99.90;;;;;;5084880;28;20845;-75
2024/01/21 03:49:03;;;;;;;4.25;4.03;;;-2.60;99.90;;;;;;5092259;28;20224;-77
2024/01/21 03:51:30;;;;;;;3.92;3.63;;;-2.60;99.90;;;;;;5105912;28;20370;-76
2024/01/21 03:53:57;;;;;;;4.05;3.85;;;-2.60;99.90;;;;;;5092609;28;20826;-77
2024/01/21 03:56:24;;;;;;;4.70;4.40;;;-2.60;99.90;;;;;;5086219;28;20218;-77
2024/01/21 03:58:51;;;;;;;3.80;3.60;;;-2.60;99.90;;;;;;5084003;28;20860;-77
2024/01/21 04:01:18;;;;;;;4.20;4.00;;;-2.60;99.90;;;;;;5081807;28;20197;-77
2024/01/21 04:03:45;;;;;;;3.70;3.50;;;-2.60;99.90;;;;;;5085360;28;20224;-77
2024/01/21 04:06:14;;;;;;;4.45;4.15;;;-2.60;99.90;;;;;;5086802;28;20224;-77
2024/01/21 04:08:41;;;;;;;4.32;4.13;;;-2.60;99.90;;;;;;5082029;28;20696;-76
2024/01/21 04:11:08;;;;;;;3.67;3.47;;;-2.60;99.90;;;;;;5082958;28;20213;-77
2024/01/21 04:13:35;;;;;;;4.15;3.95;;;-2.60;99.90;;;;;;5080918;28;20214;-75
2024/01/21 04:16:02;;;;;;;4.18;3.97;;;-2.60;99.90;;;;;;5083432;28;20228;-77
2024/01/21 04:18:29;;;;;;;4.82;4.53;;;-2.70;99.90;;;;;;5071385;28;20640;-76
2024/01/21 04:20:55;;;;;;;3.97;3.78;;;-2.70;99.90;;;;;;5063505;28;20213;-76
2024/01/21 04:23:23;;;;;;;4.35;4.05;;;-2.70;99.90;;;;;;5067382;28;20217;-77
2024/01/21 04:25:51;;;;;;;3.70;3.50;;;-2.70;99.90;;;;;;5063445;28;20218;-76
2024/01/21 04:28:18;;;;;;;4.03;3.83;;;-2.80;99.90;;;;;;5060542;28;20211;-75
2024/01/21 04:30:46;;;;;;;4.13;3.92;;;-2.80;99.90;;;;;;5069955;28;20713;-77
2024/01/21 04:33:13;;;;;;;4.75;4.50;;;-2.80;99.90;;;;;;5067541;28;20222;-78
2024/01/21 04:35:40;;;;;;;4.00;3.80;;;-2.80;99.90;;;;;;5068363;28;20226;-77
2024/01/21 04:38:07;;;;;;;4.97;4.68;;;-2.90;99.90;;;;;;5071957;28;20232;-78
2024/01/21 04:40:37;;;;;;;4.07;3.88;;;-2.90;99.90;;;;;;5083685;28;20961;-76
2024/01/21 04:43:04;;;;;;;4.53;4.30;;;-2.90;99.90;;;;;;5083216;28;20225;-77
2024/01/21 04:45:32;;;;;;;4.07;3.88;;;-2.80;99.90;;;;;;5081266;28;20220;-76
2024/01/21 04:47:59;;;;;;;4.18;3.97;;;-2.80;99.90;;;;;;5080264;28;20987;-78
2024/01/21 04:50:26;;;;;;;3.97;3.78;;;-2.80;99.90;;;;;;5083502;28;20201;-76
2024/01/21 04:52:53;;;;;;;4.20;4.00;;;-2.80;99.90;;;;;;5083126;28;20270;-76
2024/01/21 04:55:20;;;;;;;4.05;3.85;;;-2.80;99.90;;;;;;5082299;28;20204;-76
2024/01/21 04:57:49;;;;;;;3.28;3.08;;;-2.80;99.90;;;;;;5083030;28;20223;-76
2024/01/21 05:00:17;;;;;;;3.97;3.78;;;-2.80;99.90;;;;;;5081007;28;20203;-76
2024/01/21 05:02:44;;;;;;;4.70;4.40;;;-2.80;99.90;;;;;;5080372;28;20225;-78
2024/01/21 05:05:11;;;;;;;4.47;4.28;;;-2.80;99.90;;;;;;5082261;28;20209;-78
2024/01/21 05:07:38;;;;;;;4.70;4.32;;;-2.80;99.90;;;;;;5087926;28;20252;-76
2024/01/21 05:10:06;;;;;;;4.50;4.20;;;-2.90;99.90;;;;;;5086728;28;20193;-77
2024/01/21 05:12:33;;;;;;;4.38;4.07;;;-2.90;99.90;;;;;;5087821;28;20629;-78
2024/01/21 05:15:03;;;;;;;4.75;4.45;;;-3.00;99.90;;;;;;5080641;28;20293;-78
2024/01/21 05:17:30;;;;;;;4.30;4.10;;;-2.90;99.90;;;;;;5086355;28;20217;-77
2024/01/21 05:19:57;;;;;;;4.68;4.38;;;-2.90;99.90;;;;;;5080563;28;20213;-76
2024/01/21 05:22:24;;;;;;;4.47;4.28;;;-2.90;99.90;;;;;;5083342;28;20232;-76
2024/01/21 05:24:51;;;;;;;4.13;3.92;;;-2.90;99.90;;;;;;5080532;28;20201;-76
2024/01/21 05:27:18;;;;;;;4.10;3.80;;;-2.90;99.90;;;;;;5081830;28;20232;-76
2024/01/21 05:29:45;;;;;;;4.35;4.15;;;-2.90;99.90;;;;;;5081612;28;20190;-77
2024/01/21 05:32:14;;;;;;;4.10;3.90;;;-3.00;99.90;;;;;;5085168;28;20233;-77
2024/01/21 05:34:41;;;;;;;3.70;3.50;;;-3.00;99.90;;;;;;5088656;28;20579;-77
2024/01/21 05:37:08;;;;;;;4.05;3.85;;;-3.10;99.90;;;;;;5090723;28;20241;-76
2024/01/21 05:39:35;;;;;;;4.10;3.90;;;-3.10;99.90;;;;;;5095720;28;20225;-77
2024/01/21 05:42:04;;;;;;;4.00;3.80;;;-3.10;99.90;;;;;;5086894;28;20692;-78
2024/01/21 05:44:31;;;;;;;4.13;3.92;;;-3.10;99.90;;;;;;5088095;28;20209;-78
2024/01/21 05:46:58;;;;;;;3.95;3.75;;;-3.10;99.90;;;;;;5083891;28;20221;-78
2024/01/21 05:49:27;;;;;;;4.05;3.85;;;-3.20;99.90;;;;;;5081245;28;20201;-77
2024/01/21 05:51:54;;;;;;;4.80;4.40;;;-3.20;99.90;;;;;;5082795;28;21080;-76
2024/01/21 05:54:21;;;;;;;4.25;4.03;;;-3.20;99.90;;;;;;5086777;28;20208;-76
2024/01/21 05:56:48;;;;;;;4.05;3.85;;;-3.20;99.90;;;;;;5081479;28;20232;-76
2024/01/21 05:59:17;;;;;;;4.07;3.88;;;-3.10;99.90;;;;;;5067922;28;20229;-77
2024/01/21 06:01:44;;;;;;;4.47;4.18;;;-3.10;99.90;;;;;;5059652;28;20208;-78
2024/01/21 06:04:13;;;;;;;4.35;4.05;;;-3.20;99.90;;;;;;5081938;28;20497;-77
2024/01/21 06:06:41;;;;;;;4.03;3.83;;;-3.20;99.90;;;;;;5087326;28;20462;-77
2024/01/21 06:09:08;;;;;;;4.53;4.25;;;-3.20;99.90;;;;;;5083822;28;20221;-77
2024/01/21 06:11:35;;;;;;;4.18;3.97;;;-3.10;99.90;;;;;;5085017;28;20190;-77
2024/01/21 06:14:03;;;;;;;4.68;4.38;;;-3.10;99.90;;;;;;5082767;28;20703;-77
2024/01/21 06:16:30;;;;;;;4.05;3.85;;;-3.10;99.90;;;;;;5093318;28;20221;-76
2024/01/21 06:18:57;;;;;;;4.65;4.35;;;-3.10;99.90;;;;;;5087488;28;20377;-77
2024/01/21 06:21:24;;;;;;;5.10;4.80;;;-3.10;99.90;;;;;;5095325;28;20198;-77
2024/01/21 06:23:52;;;;;;;4.57;4.38;;;-3.10;99.90;;;;;;5067671;28;20229;-78
2024/01/21 06:26:20;;;;;;;4.65;4.43;;;-3.10;99.90;;;;;;5071205;28;20692;-76
2024/01/21 06:28:47;;;;;;;4.63;4.43;;;-3.10;99.90;;;;;;5102477;28;20221;-76
2024/01/21 06:31:14;;;;;;;4.75;4.45;;;-3.10;99.90;;;;;;5094998;28;20217;-78
2024/01/21 06:33:42;;;;;;;4.40;4.10;;;-3.10;99.90;;;;;;5090727;28;20236;-77
2024/01/21 06:36:09;;;;;;;4.55;4.35;;;-3.10;99.90;;;;;;5083586;28;20217;-77
2024/01/21 06:38:38;;;;;;;5.00;4.70;;;-3.10;99.90;;;;;;5084471;28;20220;-77
2024/01/21 06:41:07;;;;;;;5.00;4.70;;;-3.10;99.90;;;;;;5085527;28;20216;-78
2024/01/21 06:43:34;;;;;;;4.82;4.53;;;-3.10;99.90;;;;;;5088556;28;20224;-78
2024/01/21 06:46:01;;;;;;;4.85;4.55;;;-3.10;99.90;;;;;;5089112;28;20225;-77
2024/01/21 06:48:28;;;;;;;4.60;4.40;;;-3.10;99.90;;;;;;5085391;28;20224;-78
2024/01/21 06:50:55;;;;;;;4.78;4.47;;;-3.20;99.90;;;;;;5089476;28;20197;-77
2024/01/21 06:53:22;;;;;;;5.10;4.80;;;-3.20;99.90;;;;;;5085175;28;20213;-76
2024/01/21 06:55:49;;;;;;;5.28;4.97;;;-3.20;99.90;;;;;;5092535;28;20220;-77
2024/01/21 06:58:18;;;;;;;5.28;4.93;;;-3.20;99.90;;;;;;5095123;28;20221;-77
2024/01/21 07:00:50;;;;;;;5.20;4.90;;;-3.20;99.90;;;;;;5087311;28;20224;-78
2024/01/21 07:03:18;;;;;;;4.57;4.28;;;-3.20;99.90;;;;;;5092468;28;20321;-78
2024/01/21 07:05:45;;;;;;;5.25;4.93;;;-3.20;99.90;;;;;;5093322;28;20878;-76
2024/01/21 07:08:12;;;;;;;4.80;4.50;;;-3.10;99.90;;;;;;5089491;28;20236;-78
2024/01/21 07:10:39;;;;;;;5.40;5.00;;;-3.10;99.90;;;;;;5091191;28;20427;-78
2024/01/21 07:13:06;;;;;;;4.97;4.68;;;-3.10;99.90;;;;;;5086020;28;20306;-77
2024/01/21 07:15:35;;;;;;;4.97;4.68;;;-3.10;99.90;;;;;;5092990;28;20229;-78
2024/01/21 07:18:02;;;;;;;4.72;4.43;;;-3.10;99.90;;;;;;5091828;28;20217;-76
2024/01/21 07:20:29;;;;;;;4.93;4.63;;;-3.10;99.90;;;;;;5093874;28;20217;-77
2024/01/21 07:22:57;;;;;;;4.93;4.63;;;-3.00;99.90;;;;;;5101832;28;20260;-77
2024/01/21 07:25:24;;;;;;;4.72;4.43;;;-3.00;99.90;;;;;;5093498;28;20265;-77
2024/01/21 07:27:51;;;;;;;5.18;4.78;;;-2.90;99.90;;;;;;5090709;28;20221;-77
2024/01/21 07:30:18;;;;;;;4.70;4.40;;;-2.90;99.90;;;;;;5089869;28;20200;-77
2024/01/21 07:32:47;;;;;;;5.38;4.97;;;-2.90;99.90;;;;;;5085850;28;20217;-77
2024/01/21 07:35:14;;;;;;;5.05;4.75;;;-2.90;99.90;;;;;;5080640;28;20206;-78
2024/01/21 07:37:41;;;;;;;6.32;5.72;;;-2.90;99.90;;;;;;5086239;28;20237;-77
2024/01/21 07:40:09;;;;;;;5.63;5.22;;;-2.90;99.90;;;;;;5086112;28;20233;-77
2024/01/21 07:42:36;;;;;;;5.47;5.18;;;-2.90;99.90;;;;;;5095271;28;20218;-78
2024/01/21 07:45:03;;;;;;;5.25;4.85;;;-2.90;99.90;;;;;;5087576;28;20660;-77
2024/01/21 07:47:30;;;;;;;6.07;5.57;;;-2.80;99.90;;;;;;5083603;28;20229;-78
2024/01/21 07:49:58;;;;;;;5.35;4.95;;;-2.70;99.90;;;;;;5091149;28;20838;-77
2024/01/21 07:52:25;;;;;;;5.30;5.00;;;-2.70;99.90;;;;;;5084378;28;20226;-77
2024/01/21 07:54:52;;;;;;;6.25;5.75;;;-2.70;99.90;;;;;;5091504;28;20198;-78
2024/01/21 07:57:19;;;;;;;6.60;6.10;;;-2.80;99.90;;;;;;5083161;28;20226;-77
2024/01/21 07:59:46;;;;;;;6.72;6.13;;;-2.80;99.90;;;;;;5083561;28;20859;-78
2024/01/21 08:02:13;;;;;;;7.90;7.30;;;-2.90;99.90;;;;;;5077131;28;20225;-77
2024/01/21 08:04:40;;;;;;;6.90;6.30;;;-2.80;99.90;;;;;;5091685;28;20573;-77
2024/01/21 08:07:09;;;;;;;8.05;7.30;;;-2.80;99.90;;;;;;5084584;28;20248;-76
2024/01/21 08:09:36;;;;;;;8.20;7.47;;;-2.80;99.90;;;;;;5086755;28;20720;-78
2024/01/21 08:12:04;;;;;;;6.60;6.00;;;-2.90;99.90;;;;;;5083099;28;20200;-77
2024/01/21 08:14:32;;;;;;;6.63;6.10;;;-2.90;99.90;;;;;;5083931;28;20237;-77
2024/01/21 08:16:59;;;;;;;7.07;6.47;;;-2.90;99.90;;;;;;5089676;28;20221;-78
2024/01/21 08:19:26;;;;;;;6.32;5.82;;;-2.90;99.90;;;;;;5087434;28;20213;-77
2024/01/21 08:21:53;;;;;;;6.30;5.80;;;-2.40;99.90;;;;;;5082660;28;20198;-79
2024/01/21 08:24:21;;;;;;;6.85;6.10;;;-1.20;99.90;;;;;;5086897;28;20193;-78
2024/01/21 08:26:48;;;;;;;6.57;5.93;;;-0.30;99.90;;;;;;5086917;28;20243;-79
2024/01/21 08:29:15;;;;;;;5.60;5.20;;;0.60;99.90;;;;;;5084152;28;20303;-77
2024/01/21 08:31:43;;;;;;;7.47;6.10;;;1.30;99.90;;;;;;5090154;28;20208;-77
2024/01/21 08:34:10;;;;;;;6.78;6.28;;;2.00;99.90;;;;;;5084676;28;20252;-77
2024/01/21 08:36:37;;;;;;;6.25;5.68;;;2.60;99.90;;;;;;5081116;28;20217;-77
2024/01/21 08:39:06;;;;;;;6.32;5.82;;;3.10;99.90;;;;;;5082601;28;20221;-78
2024/01/21 08:41:35;;;;;;;6.05;5.55;;;3.50;99.90;;;;;;5082736;28;20197;-77
2024/01/21 08:44:03;;;;;;;6.13;5.63;;;4.00;99.90;;;;;;5088990;28;20249;-78
2024/01/21 08:46:30;;;;;;;7.65;6.18;;;4.70;99.90;;;;;;5086037;28;20218;-78
2024/01/21 08:48:57;;;;;;;5.60;5.13;;;5.10;99.90;;;;;;5082627;28;20233;-78
2024/01/21 08:51:24;;;;;;;5.30;4.90;;;5.50;99.90;;;;;;5087588;28;20774;-77
2024/01/21 08:53:56;;;;;;;6.32;5.72;;;5.90;99.90;;;;;;5088854;28;20955;-78
2024/01/21 08:56:24;;;;;;;6.60;5.95;;;6.10;99.90;;;;;;5083787;28;20276;-77
2024/01/21 08:58:54;;;;;;;7.30;6.68;;;6.40;99.70;;;;;;5078446;28;20249;-78
2024/01/21 09:01:21;;;;;;;5.65;5.15;;;6.20;99.50;;;;;;5080071;28;20221;-78
2024/01/21 09:03:49;;;;;;;5.50;5.00;;;6.10;99.30;;;;;;5081559;28;20228;-76
2024/01/21 09:06:16;;;;;;;5.90;5.40;;;6.20;99.60;;;;;;5082162;28;20221;-76
2024/01/21 09:08:43;;;;;;;5.68;5.07;;;6.40;98.70;;;;;;5079801;28;20233;-77
2024/01/21 09:11:10;;;;;;;5.63;5.13;;;6.50;98.10;;;;;;5078278;28;20194;-77
2024/01/21 09:13:37;;;;;;;5.40;5.00;;;6.80;98.70;;;;;;5079746;28;20233;-78
2024/01/21 09:16:07;;;;;;;5.53;5.13;;;7.40;99.90;;;;;;5084107;28;20220;-75
2024/01/21 09:18:34;;;;;;;6.25;5.10;;;7.80;99.90;;;;;;5085720;28;20600;-78
2024/01/21 09:21:02;;;;;;;5.75;5.13;;;7.90;99.90;;;;;;5085269;28;20734;-77
2024/01/21 09:23:29;;;;;;;5.55;5.05;;;8.00;99.90;;;;;;5085483;28;20221;-77
2024/01/21 09:25:56;;;;;;;5.32;4.90;;;8.10;99.90;;;;;;5080949;28;20286;-78
2024/01/21 09:28:24;;;;;;;5.18;4.72;;;8.50;98.90;;;;;;5078073;28;20233;-78
2024/01/21 09:30:51;;;;;;;5.43;4.93;;;9.10;97.10;;;;;;5081798;28;20222;-77
2024/01/21 09:33:20;;;;;;;4.85;4.35;;;10.00;92.50;;;;;;5086055;28;20230;-77
2024/01/21 09:35:49;;;;;;;5.15;4.60;;;11.30;89.50;;;;;;5083010;28;20235;-77
2024/01/21 09:38:18;;;;;;;4.80;4.40;;;12.50;81.90;;;;;;5085651;28;20641;-77
2024/01/21 09:40:51;;;;;;;4.57;4.18;;;13.40;74.80;;;;;;5083589;28;20240;-78
2024/01/21 09:43:18;;;;;;;4.63;4.22;;;14.00;68.00;;;;;;5088770;28;20220;-77
2024/01/21 09:45:45;;;;;;;3.88;3.58;;;14.40;63.90;;;;;;5079413;28;20218;-77
2024/01/21 09:48:13;;;;;;;4.10;3.70;;;14.30;60.60;;;;;;5083201;28;20240;-77
2024/01/21 09:50:43;;;;;;;4.10;3.80;;;14.40;59.90;;;;;;5087457;28;20289;-77
2024/01/21 09:53:10;;;;;;;3.80;3.50;;;14.40;59.70;;;;;;5086411;28;20225;-77
2024/01/21 09:55:37;;;;;;;5.63;4.30;;;14.00;59.30;;;;;;5085676;28;20306;-77
2024/01/21 09:58:09;;;;;;;4.40;4.00;;;13.20;60.30;;;;;;5086080;28;20236;-77
2024/01/21 10:00:36;;;;;;;5.05;4.40;;;12.50;61.80;;;;;;5077300;28;20216;-77
2024/01/21 10:03:04;;;;;;;5.80;5.20;;;11.30;64.50;;;;;;5087719;27;20220;-77
2024/01/21 10:05:31;;;;;;;5.22;4.82;;;10.00;68.00;;;;;;5081913;28;20284;-77
2024/01/21 10:07:59;;;;;;;5.35;4.38;;;9.10;70.90;;;;;;5082961;28;20213;-78
2024/01/21 10:10:27;;;;;;;5.47;4.32;;;8.10;72.60;;;;;;5085152;28;20204;-77
2024/01/21 10:12:54;;;;;;;4.75;4.30;;;7.10;73.90;;;;;;5083088;28;20983;-78
2024/01/21 10:15:21;;;;;;;4.35;3.95;;;6.50;75.40;;;;;;5083256;28;20202;-77
2024/01/21 10:17:48;;;;;;;5.03;4.53;;;6.10;77.90;;;;;;5086127;28;20229;-78
2024/01/21 10:20:15;;;;;;;4.07;3.78;;;6.10;79.50;;;;;;5081944;28;20217;-78
2024/01/21 10:22:44;;;;;;;4.75;4.38;;;6.00;78.60;;;;;;5075390;28;20229;-77
2024/01/21 10:25:15;;;;;;;4.30;3.90;;;6.00;80.60;;;;;;5088799;28;20208;-77
2024/01/21 10:27:45;;;;;;;5.20;4.40;;;6.00;79.90;;;;;;5082451;28;20768;-76
2024/01/21 10:30:13;;;;;;;3.97;3.75;;;6.00;81.00;;;;;;5087239;28;20208;-77
2024/01/21 10:32:40;;;;;;;4.40;4.10;;;6.10;82.40;;;;;;5084254;28;20233;-77
2024/01/21 10:35:08;;;;;;;4.35;3.95;;;6.40;82.10;;;;;;5079705;28;20202;-77
2024/01/21 10:37:40;;;;;;;4.70;4.40;;;6.40;82.00;;;;;;5074224;28;20237;-77
2024/01/21 10:40:10;;;;;;;3.90;3.60;;;6.30;81.00;;;;;;5083851;28;20217;-77
2024/01/21 10:42:41;;;;;;;5.13;4.30;;;6.40;81.90;;;;;;5083175;27;20312;-76
2024/01/21 10:45:08;;;;;;;4.70;3.67;;;6.50;81.40;;;;;;5083301;28;20201;-77
2024/01/21 10:51:27;;;;;;;4.75;4.38;;;6.70;80.20;;;;;;5122356;27;20675;-75
2024/01/21 10:53:54;;;;;;;4.32;4.03;;;6.60;80.70;;;;;;5094457;27;20277;-75
2024/01/21 10:56:23;;;;;;;4.85;4.45;;;6.40;81.30;;;;;;5081734;28;20810;-75
2024/01/21 10:58:50;;;;;;;5.05;4.05;;;6.20;81.30;;;;;;5069596;28;20221;-75
2024/01/21 11:01:18;;;;;;;4.35;4.05;;;5.80;82.00;;;;;;5071583;28;20771;-74
2024/01/21 11:03:48;;;;;;;4.50;4.10;;;5.80;83.90;;;;;;5071405;28;20218;-75
2024/01/21 11:06:16;;;;;;;4.32;4.03;;;5.80;84.00;;;;;;5071517;28;20233;-74
2024/01/21 11:08:45;;;;;;;4.47;4.07;;;5.70;83.80;;;;;;5069505;28;21263;-74
2024/01/21 11:11:20;;;;;;;5.18;4.25;;;5.60;85.60;;;;;;5071863;28;20214;-74
2024/01/21 11:13:48;;;;;;;4.70;4.30;;;5.60;86.30;;;;;;5068781;28;20237;-75
2024/01/21 11:16:35;;;;;;;4.38;4.00;;;5.50;86.90;;;;;;5068451;28;20233;-75
2024/01/21 11:19:07;;;;;;;5.25;4.75;;;5.50;86.70;;;;;;5070251;28;20364;-75
2024/01/21 11:21:38;;;;;;;5.30;4.90;;;5.60;87.10;;;;;;5072811;28;20205;-74
2024/01/21 11:24:10;;;;;;;6.30;4.53;;;5.60;88.00;;;;;;5070178;28;20865;-74
2024/01/21 11:26:38;;;;;;;5.07;4.68;;;5.40;88.40;;;;;;5070993;28;20234;-75
2024/01/21 11:29:22;;;;;;;4.80;4.40;;;5.40;88.60;;;;;;5073851;28;20218;-75
2024/01/21 11:31:50;;;;;;;5.00;4.60;;;5.60;88.30;;;;;;5073074;28;20201;-75
2024/01/21 11:34:18;;;;;;;4.45;4.10;;;5.70;88.60;;;;;;5069601;28;20226;-75
2024/01/21 11:36:46;;;;;;;4.00;3.70;;;6.00;88.20;;;;;;5070745;28;20221;-75
2024/01/21 11:39:14;;;;;;;4.90;4.50;;;5.90;88.00;;;;;;5071113;28;20218;-75
2024/01/21 11:41:43;;;;;;;5.25;4.75;;;5.80;87.50;;;;;;5074683;28;20198;-75
2024/01/21 11:44:12;;;;;;;5.25;4.85;;;5.80;87.80;;;;;;5068401;28;20217;-75
2024/01/21 11:46:40;;;;;;;4.82;4.43;;;5.90;88.20;;;;;;5070611;28;20327;-75
2024/01/21 11:49:08;;;;;;;4.93;4.53;;;6.00;89.20;;;;;;5070590;28;20225;-75
2024/01/21 11:51:35;;;;;;;5.43;4.93;;;6.00;87.90;;;;;;5070470;28;20226;-75
2024/01/21 11:54:02;;;;;;;4.93;4.53;;;6.00;87.60;;;;;;5067885;28;20225;-75
2024/01/21 11:56:30;;;;;;;4.75;4.40;;;5.80;88.70;;;;;;5072003;28;20282;-75
2024/01/21 11:58:58;;;;;;;4.97;4.47;;;5.70;88.40;;;;;;5066945;28;20237;-75
2024/01/21 12:01:26;;;;;;;5.07;4.68;;;5.70;88.10;;;;;;5064708;28;21026;-76
2024/01/21 12:03:54;;;;;;;4.60;4.20;;;5.70;88.60;;;;;;5055260;28;20597;-76
2024/01/21 12:06:22;;;;;;;5.32;4.88;;;5.60;87.60;;;;;;5055700;28;20235;-75
2024/01/21 12:08:50;;;;;;;4.60;4.22;;;5.60;88.00;;;;;;5059085;28;20241;-75
2024/01/21 12:11:17;;;;;;;4.53;4.13;;;5.40;87.30;;;;;;5056897;28;20222;-75
2024/01/21 12:13:45;;;;;;;4.97;4.57;;;5.30;87.90;;;;;;5055597;28;20217;-75
2024/01/21 12:16:13;;;;;;;4.75;4.35;;;5.20;88.00;;;;;;5057710;28;20260;-75
2024/01/21 12:18:41;;;;;;;4.35;4.05;;;5.30;88.40;;;;;;5055037;28;20858;-75
2024/01/21 12:21:12;;;;;;;4.10;3.80;;;5.30;87.50;;;;;;5059074;28;20668;-75
2024/01/21 12:23:41;;;;;;;5.38;4.20;;;5.30;88.30;;;;;;5057661;28;20927;-75
2024/01/21 12:26:08;;;;;;;4.63;4.28;;;5.20;87.50;;;;;;5053881;28;20707;-75
2024/01/21 12:28:35;;;;;;;4.85;4.47;;;5.20;88.70;;;;;;5058418;28;20214;-75
2024/01/21 12:31:03;;;;;;;5.63;4.95;;;5.20;89.10;;;;;;5060262;28;20242;-75
2024/01/21 12:33:30;;;;;;;4.20;3.90;;;5.40;89.60;;;;;;5054117;28;20214;-75
2024/01/21 12:35:58;;;;;;;4.93;4.63;;;5.60;89.40;;;;;;5060002;28;20659;-75
2024/01/21 12:38:26;;;;;;;4.63;4.32;;;5.70;89.50;;;;;;5057304;28;20225;-75
2024/01/21 12:40:53;;;;;;;4.72;4.20;;;5.60;87.30;;;;;;5054770;28;20202;-75
2024/01/21 12:43:20;;;;;;;4.30;3.90;;;5.50;88.30;;;;;;5057868;28;20233;-75
2024/01/21 12:45:47;;;;;;;4.60;4.20;;;5.40;89.00;;;;;;5054978;28;20218;-75
2024/01/21 12:48:15;;;;;;;4.40;4.10;;;5.40;89.40;;;;;;5058971;28;20261;-75
2024/01/21 12:50:43;;;;;;;4.25;3.95;;;5.40;89.00;;;;;;5054073;28;20764;-75
2024/01/21 12:53:10;;;;;;;4.40;4.10;;;5.30;89.00;;;;;;5057848;28;20229;-75
2024/01/21 12:55:38;;;;;;;4.90;4.50;;;5.40;89.70;;;;;;5055240;28;20715;-75